Time,TemperatureF,DewpointF,PressureIn,WindDirection,WindDirectionDegrees,WindSpeedMPH,WindSpeedGustMPH,Humidity,HourlyPrecipIn,Conditions,Clouds,dailyrainin,SolarRadiationWatts/m^2,SoftwareType,DateUTC
2013-02-12 00:02:00,44.6,39.7,30.27,North,5,1.0,2.0,83,0.00,,,0.00,0,HR-IXP-WINDi_r2_v1.2,2013-02-12 08:02:00,
2013-02-12 00:07:00,44.2,39.9,30.27,North,5,0.0,2.0,85,0.00,,,0.00,0,HR-IXP-WINDi_r2_v1.2,2013-02-12 08:07:00,
2013-02-12 00:12:00,44.7,40.4,30.27,North,5,0.0,2.0,85,0.00,,,0.00,0,HR-IXP-WINDi_r2_v1.2,2013-02-12 08:12:00,
2013-02-12 00:18:00,44.5,40.2,30.27,North,5,1.0,1.0,85,0.00,,,0.00,0,HR-IXP-WINDi_r2_v1.2,2013-02-12 08:18:00,
2013-02-12 00:23:00,43.8,39.5,30.27,North,5,0.0,1.0,85,0.00,,,0.00,0,HR-IXP-WINDi_r2_v1.2,2013-02-12 08:23:00,
2013-02-12 00:28:00,43.9,39.9,30.27,North,5,0.0,1.0,86,0.00,,,0.00,0,HR-IXP-WINDi_r2_v1.2,2013-02-12 08:28:00,
2013-02-12 00:33:00,44.1,40.1,30.27,North,5,0.0,0.0,86,0.00,,,0.00,0,HR-IXP-WINDi_r2_v1.2,2013-02-12 08:33:00,
2013-02-12 00:38:00,43.8,39.8,30.27,North,5,0.0,1.0,86,0.00,,,0.00,0,HR-IXP-WINDi_r2_v1.2,2013-02-12 08:38:00,
2013-02-12 00:44:00,43.9,40.2,30.27,North,5,0.0,1.0,87,0.00,,,0.00,0,HR-IXP-WINDi_r2_v1.2,2013-02-12 08:44:00,
2013-02-12 00:49:00,43.9,39.9,30.28,North,5,0.0,1.0,86,0.00,,,0.00,0,HR-IXP-WINDi_r2_v1.2,2013-02-12 08:49:00,
2013-02-12 00:54:00,43.7,39.7,30.28,North,5,0.0,1.0,86,0.00,,,0.00,0,HR-IXP-WINDi_r2_v1.2,2013-02-12 08:54:00,
2013-02-12 00:59:00,43.7,39.7,30.28,North,5,0.0,0.0,86,0.00,,,0.00,0,HR-IXP-WINDi_r2_v1.2,2013-02-12 08:59:00,
2013-02-12 01:05:00,43.3,39.3,30.28,North,5,0.0,0.0,86,0.00,,,0.00,0,HR-IXP-WINDi_r2_v1.2,2013-02-12 09:05:00,
2013-02-12 01:10:00,43.2,39.2,30.28,North,5,0.0,0.0,86,0.00,,,0.00,0,HR-IXP-WINDi_r2_v1.2,2013-02-12 09:10:00,
2013-02-12 01:15:00,43.3,39.6,30.28,North,5,0.0,0.0,87,0.00,,,0.00,0,HR-IXP-WINDi_r2_v1.2,2013-02-12 09:15:00,
2013-02-12 01:20:00,43.1,39.2,30.27,North,5,0.0,1.0,86,0.00,,,0.00,0,HR-IXP-WINDi_r2_v1.2,2013-02-12 09:20:00,
2013-02-12 01:25:00,43.1,39.2,30.28,North,5,1.0,1.0,86,0.00,,,0.00,0,HR-IXP-WINDi_r2_v1.2,2013-02-12 09:25:00,
2013-02-12 01:31:00,43.0,39.1,30.28,North,5,0.0,1.0,86,0.00,,,0.00,0,HR-IXP-WINDi_r2_v1.2,2013-02-12 09:31:00,
2013-02-12 01:36:00,42.7,38.5,30.28,North,5,0.0,1.0,85,0.00,,,0.00,0,HR-IXP-WINDi_r2_v1.2,2013-02-12 09:36:00,
2013-02-12 01:41:00,42.5,38.3,30.28,North,5,1.0,1.0,85,0.00,,,0.00,0,HR-IXP-WINDi_r2_v1.2,2013-02-12 09:41:00,
2013-02-12 01:46:00,42.4,38.2,30.28,North,5,0.0,1.0,85,0.00,,,0.00,0,HR-IXP-WINDi_r2_v1.2,2013-02-12 09:46:00,
2013-02-12 01:52:00,42.2,37.7,30.28,North,5,0.0,1.0,84,0.00,,,0.00,0,HR-IXP-WINDi_r2_v1.2,2013-02-12 09:52:00,
2013-02-12 01:57:00,42.0,37.5,30.28,North,5,0.0,1.0,84,0.00,,,0.00,0,HR-IXP-WINDi_r2_v1.2,2013-02-12 09:57:00,
2013-02-12 02:02:00,41.8,37.6,30.28,North,5,0.0,1.0,85,0.00,,,0.00,0,HR-IXP-WINDi_r2_v1.2,2013-02-12 10:02:00,
2013-02-12 02:07:00,41.6,37.4,30.28,North,5,0.0,1.0,85,0.00,,,0.00,0,HR-IXP-WINDi_r2_v1.2,2013-02-12 10:07:00,
2013-02-12 02:12:00,41.7,37.5,30.28,North,5,0.0,1.0,85,0.00,,,0.00,0,HR-IXP-WINDi_r2_v1.2,2013-02-12 10:12:00,
2013-02-12 02:18:00,42.1,37.9,30.28,North,5,0.0,1.0,85,0.00,,,0.00,0,HR-IXP-WINDi_r2_v1.2,2013-02-12 10:18:00,
2013-02-12 02:23:00,42.2,38.0,30.28,North,5,0.0,0.0,85,0.00,,,0.00,0,HR-IXP-WINDi_r2_v1.2,2013-02-12 10:23:00,
2013-02-12 02:28:00,42.4,38.2,30.28,North,5,0.0,0.0,85,0.00,,,0.00,0,HR-IXP-WINDi_r2_v1.2,2013-02-12 10:28:00,
2013-02-12 02:33:00,42.3,38.1,30.28,North,5,0.0,0.0,85,0.00,,,0.00,0,HR-IXP-WINDi_r2_v1.2,2013-02-12 10:33:00,
2013-02-12 02:38:00,42.5,38.3,30.28,North,5,0.0,1.0,85,0.00,,,0.00,0,HR-IXP-WINDi_r2_v1.2,2013-02-12 10:38:00,
2013-02-12 02:43:00,42.5,38.0,30.28,North,5,0.0,1.0,84,0.00,,,0.00,0,HR-IXP-WINDi_r2_v1.2,2013-02-12 10:43:00,
2013-02-12 02:49:00,42.4,37.9,30.28,North,5,0.0,1.0,84,0.00,,,0.00,0,HR-IXP-WINDi_r2_v1.2,2013-02-12 10:49:00,
2013-02-12 02:54:00,42.4,37.9,30.28,North,5,1.0,1.0,84,0.00,,,0.00,0,HR-IXP-WINDi_r2_v1.2,2013-02-12 10:54:00,
2013-02-12 02:59:00,41.9,37.1,30.28,North,5,1.0,2.0,83,0.00,,,0.00,0,HR-IXP-WINDi_r2_v1.2,2013-02-12 10:59:00,
2013-02-12 03:04:00,41.9,37.4,30.28,North,5,0.0,2.0,84,0.00,,,0.00,0,HR-IXP-WINDi_r2_v1.2,2013-02-12 11:04:00,
2013-02-12 03:09:00,42.0,37.2,30.28,North,5,0.0,2.0,83,0.00,,,0.00,0,HR-IXP-WINDi_r2_v1.2,2013-02-12 11:09:00,
2013-02-12 03:14:00,41.7,36.9,30.28,North,5,1.0,2.0,83,0.00,,,0.00,0,HR-IXP-WINDi_r2_v1.2,2013-02-12 11:14:00,
2013-02-12 03:19:00,41.5,36.7,30.28,North,5,0.0,2.0,83,0.00,,,0.00,0,HR-IXP-WINDi_r2_v1.2,2013-02-12 11:19:00,
2013-02-12 03:25:00,41.0,36.2,30.28,North,5,1.0,1.0,83,0.00,,,0.00,0,HR-IXP-WINDi_r2_v1.2,2013-02-12 11:25:00,
2013-02-12 03:30:00,41.0,36.2,30.29,North,5,0.0,2.0,83,0.00,,,0.00,0,HR-IXP-WINDi_r2_v1.2,2013-02-12 11:30:00,
2013-02-12 03:35:00,41.1,36.3,30.29,North,5,0.0,2.0,83,0.00,,,0.00,0,HR-IXP-WINDi_r2_v1.2,2013-02-12 11:35:00,
2013-02-12 03:40:00,41.5,36.7,30.29,North,5,1.0,2.0,83,0.00,,,0.00,0,HR-IXP-WINDi_r2_v1.2,2013-02-12 11:40:00,
2013-02-12 03:45:00,41.5,36.4,30.29,North,5,0.0,2.0,82,0.00,,,0.00,0,HR-IXP-WINDi_r2_v1.2,2013-02-12 11:45:00,
2013-02-12 03:51:00,41.3,36.2,30.29,North,5,0.0,2.0,82,0.00,,,0.00,0,HR-IXP-WINDi_r2_v1.2,2013-02-12 11:51:00,
2013-02-12 03:56:00,40.9,35.8,30.29,North,5,1.0,3.0,82,0.00,,,0.00,0,HR-IXP-WINDi_r2_v1.2,2013-02-12 11:56:00,
2013-02-12 04:01:00,41.1,36.0,30.29,North,5,1.0,3.0,82,0.00,,,0.00,0,HR-IXP-WINDi_r2_v1.2,2013-02-12 12:01:00,
2013-02-12 04:06:00,41.2,36.1,30.29,North,5,1.0,2.0,82,0.00,,,0.00,0,HR-IXP-WINDi_r2_v1.2,2013-02-12 12:06:00,
2013-02-12 04:11:00,41.3,35.9,30.29,NNE,12,1.0,2.0,81,0.00,,,0.00,0,HR-IXP-WINDi_r2_v1.2,2013-02-12 12:11:00,
2013-02-12 04:17:00,41.2,35.8,30.30,NNE,14,1.0,2.0,81,0.00,,,0.00,0,HR-IXP-WINDi_r2_v1.2,2013-02-12 12:17:00,
2013-02-12 04:22:00,41.3,35.9,30.30,NNE,15,1.0,2.0,81,0.00,,,0.00,0,HR-IXP-WINDi_r2_v1.2,2013-02-12 12:22:00,
2013-02-12 04:27:00,41.1,35.7,30.30,NNE,22,1.0,2.0,81,0.00,,,0.00,0,HR-IXP-WINDi_r2_v1.2,2013-02-12 12:27:00,
2013-02-12 04:32:00,41.2,35.5,30.30,NNE,22,1.0,2.0,80,0.00,,,0.00,0,HR-IXP-WINDi_r2_v1.2,2013-02-12 12:32:00,
2013-02-12 04:38:00,41.2,35.1,30.30,NNE,31,0.0,3.0,79,0.00,,,0.00,0,HR-IXP-WINDi_r2_v1.2,2013-02-12 12:38:00,
2013-02-12 04:43:00,41.4,35.3,30.30,NNE,32,1.0,3.0,79,0.00,,,0.00,0,HR-IXP-WINDi_r2_v1.2,2013-02-12 12:43:00,
2013-02-12 04:48:00,41.1,34.7,30.30,NNE,32,0.0,2.0,78,0.00,,,0.00,0,HR-IXP-WINDi_r2_v1.2,2013-02-12 12:48:00,
2013-02-12 04:53:00,41.3,34.9,30.31,NNE,32,0.0,2.0,78,0.00,,,0.00,0,HR-IXP-WINDi_r2_v1.2,2013-02-12 12:53:00,
2013-02-12 04:58:00,41.4,35.0,30.31,NNE,32,0.0,2.0,78,0.00,,,0.00,0,HR-IXP-WINDi_r2_v1.2,2013-02-12 12:58:00,
2013-02-12 05:03:00,41.3,34.9,30.31,NNE,32,0.0,2.0,78,0.00,,,0.00,0,HR-IXP-WINDi_r2_v1.2,2013-02-12 13:03:00,
2013-02-12 05:08:00,41.2,34.8,30.31,NNE,32,0.0,1.0,78,0.00,,,0.00,0,HR-IXP-WINDi_r2_v1.2,2013-02-12 13:08:00,
2013-02-12 05:13:00,41.1,35.0,30.31,NNE,32,0.0,1.0,79,0.00,,,0.00,0,HR-IXP-WINDi_r2_v1.2,2013-02-12 13:13:00,
2013-02-12 05:19:00,41.5,35.1,30.31,NNE,32,0.0,1.0,78,0.00,,,0.00,0,HR-IXP-WINDi_r2_v1.2,2013-02-12 13:19:00,
2013-02-12 05:24:00,41.3,34.9,30.31,NNE,32,0.0,1.0,78,0.00,,,0.00,0,HR-IXP-WINDi_r2_v1.2,2013-02-12 13:24:00,
2013-02-12 05:29:00,41.3,34.9,30.31,NNE,32,0.0,2.0,78,0.00,,,0.00,0,HR-IXP-WINDi_r2_v1.2,2013-02-12 13:29:00,
2013-02-12 05:34:00,41.2,34.8,30.31,NNE,32,0.0,2.0,78,0.00,,,0.00,0,HR-IXP-WINDi_r2_v1.2,2013-02-12 13:34:00,
2013-02-12 05:39:00,41.1,34.7,30.32,NNE,32,0.0,2.0,78,0.00,,,0.00,0,HR-IXP-WINDi_r2_v1.2,2013-02-12 13:39:00,
2013-02-12 05:44:00,41.0,34.6,30.32,NNE,32,0.0,1.0,78,0.00,,,0.00,0,HR-IXP-WINDi_r2_v1.2,2013-02-12 13:44:00,
2013-02-12 05:50:00,41.0,34.3,30.32,NNE,32,1.0,2.0,77,0.00,,,0.00,0,HR-IXP-WINDi_r2_v1.2,2013-02-12 13:50:00,
2013-02-12 05:55:00,40.9,33.9,30.32,NNE,32,0.0,2.0,76,0.00,,,0.00,0,HR-IXP-WINDi_r2_v1.2,2013-02-12 13:55:00,
2013-02-12 06:00:00,40.8,33.8,30.32,NNE,32,0.0,2.0,76,0.00,,,0.00,0,HR-IXP-WINDi_r2_v1.2,2013-02-12 14:00:00,
2013-02-12 06:05:00,40.8,33.8,30.32,NE,34,2.0,3.0,76,0.00,,,0.00,0,HR-IXP-WINDi_r2_v1.2,2013-02-12 14:05:00,
2013-02-12 06:10:00,40.9,33.9,30.32,NE,34,0.0,3.0,76,0.00,,,0.00,0,HR-IXP-WINDi_r2_v1.2,2013-02-12 14:10:00,
2013-02-12 06:16:00,40.9,33.6,30.33,NE,34,2.0,3.0,75,0.00,,,0.00,0,HR-IXP-WINDi_r2_v1.2,2013-02-12 14:16:00,
2013-02-12 06:21:00,40.8,33.8,30.33,NE,34,0.0,4.0,76,0.00,,,0.00,0,HR-IXP-WINDi_r2_v1.2,2013-02-12 14:21:00,
2013-02-12 06:26:00,40.5,33.2,30.33,NE,34,1.0,4.0,75,0.00,,,0.00,0,HR-IXP-WINDi_r2_v1.2,2013-02-12 14:26:00,
2013-02-12 06:31:00,40.5,33.5,30.33,NE,34,0.0,1.0,76,0.00,,,0.00,0,HR-IXP-WINDi_r2_v1.2,2013-02-12 14:31:00,
2013-02-12 06:36:00,40.2,33.2,30.33,NE,34,0.0,1.0,76,0.00,,,0.00,0,HR-IXP-WINDi_r2_v1.2,2013-02-12 14:36:00,
2013-02-12 06:41:00,39.9,32.9,30.33,NE,34,0.0,1.0,76,0.00,,,0.00,5,HR-IXP-WINDi_r2_v1.2,2013-02-12 14:41:00,
2013-02-12 06:46:00,40.0,33.0,30.34,NE,34,1.0,2.0,76,0.00,,,0.00,9,HR-IXP-WINDi_r2_v1.2,2013-02-12 14:46:00,
2013-02-12 06:52:00,40.4,33.7,30.34,NE,34,0.0,2.0,77,0.00,,,0.00,12,HR-IXP-WINDi_r2_v1.2,2013-02-12 14:52:00,
2013-02-12 06:57:00,40.4,33.4,30.34,NE,34,1.0,2.0,76,0.00,,,0.00,18,HR-IXP-WINDi_r2_v1.2,2013-02-12 14:57:00,
2013-02-12 07:02:00,40.9,33.9,30.34,NE,34,0.0,2.0,76,0.00,,,0.00,21,HR-IXP-WINDi_r2_v1.2,2013-02-12 15:02:00,
2013-02-12 07:07:00,41.7,34.3,30.35,NE,34,0.0,2.0,75,0.00,,,0.00,28,HR-IXP-WINDi_r2_v1.2,2013-02-12 15:07:00,
2013-02-12 07:12:00,41.6,33.9,30.35,NE,34,0.0,1.0,74,0.00,,,0.00,33,HR-IXP-WINDi_r2_v1.2,2013-02-12 15:12:00,
2013-02-12 07:17:00,42.2,34.5,30.35,NE,34,0.0,1.0,74,0.00,,,0.00,35,HR-IXP-WINDi_r2_v1.2,2013-02-12 15:17:00,
2013-02-12 07:22:00,42.7,35.0,30.36,NE,34,0.0,1.0,74,0.00,,,0.00,42,HR-IXP-WINDi_r2_v1.2,2013-02-12 15:22:00,
2013-02-12 07:28:00,43.2,35.1,30.36,NE,34,0.0,2.0,73,0.00,,,0.00,44,HR-IXP-WINDi_r2_v1.2,2013-02-12 15:28:00,
2013-02-12 07:33:00,43.4,34.9,30.36,NE,34,2.0,3.0,72,0.00,,,0.00,54,HR-IXP-WINDi_r2_v1.2,2013-02-12 15:33:00,
2013-02-12 07:38:00,43.8,35.0,30.36,NE,34,2.0,3.0,71,0.00,,,0.00,70,HR-IXP-WINDi_r2_v1.2,2013-02-12 15:38:00,
2013-02-12 07:43:00,44.1,35.3,30.37,NE,34,2.0,3.0,71,0.00,,,0.00,97,HR-IXP-WINDi_r2_v1.2,2013-02-12 15:43:00,
2013-02-12 07:48:00,44.3,35.8,30.37,NE,34,1.0,3.0,72,0.00,,,0.00,118,HR-IXP-WINDi_r2_v1.2,2013-02-12 15:48:00,
2013-02-12 07:54:00,44.6,36.1,30.37,NE,34,2.0,3.0,72,0.00,,,0.00,135,HR-IXP-WINDi_r2_v1.2,2013-02-12 15:54:00,
2013-02-12 07:59:00,45.1,36.2,30.37,NE,37,2.0,4.0,71,0.00,,,0.00,149,HR-IXP-WINDi_r2_v1.2,2013-02-12 15:59:00,
2013-02-12 08:04:00,45.6,36.7,30.37,NE,39,3.0,4.0,71,0.00,,,0.00,160,HR-IXP-WINDi_r2_v1.2,2013-02-12 16:04:00,
2013-02-12 08:09:00,46.2,36.9,30.37,NE,40,3.0,4.0,70,0.00,,,0.00,171,HR-IXP-WINDi_r2_v1.2,2013-02-12 16:09:00,
2013-02-12 08:14:00,46.5,37.2,30.37,NE,42,3.0,4.0,70,0.00,,,0.00,183,HR-IXP-WINDi_r2_v1.2,2013-02-12 16:14:00,
2013-02-12 08:19:00,47.2,37.1,30.37,NE,49,2.0,3.0,68,0.00,,,0.00,193,HR-IXP-WINDi_r2_v1.2,2013-02-12 16:19:00,
2013-02-12 08:24:00,47.8,37.7,30.38,NE,55,2.0,4.0,68,0.00,,,0.00,204,HR-IXP-WINDi_r2_v1.2,2013-02-12 16:24:00,
2013-02-12 08:29:00,48.4,37.9,30.38,NE,36,2.0,4.0,67,0.00,,,0.00,214,HR-IXP-WINDi_r2_v1.2,2013-02-12 16:29:00,
2013-02-12 08:35:00,49.2,38.3,30.38,NE,51,2.0,4.0,66,0.00,,,0.00,221,HR-IXP-WINDi_r2_v1.2,2013-02-12 16:35:00,
2013-02-12 08:40:00,49.9,38.2,30.38,NE,34,2.0,4.0,64,0.00,,,0.00,223,HR-IXP-WINDi_r2_v1.2,2013-02-12 16:40:00,
2013-02-12 08:45:00,50.1,38.0,30.38,NE,37,2.0,5.0,63,0.00,,,0.00,218,HR-IXP-WINDi_r2_v1.2,2013-02-12 16:45:00,
2013-02-12 08:50:00,51.0,38.4,30.38,NE,38,1.0,5.0,62,0.00,,,0.00,213,HR-IXP-WINDi_r2_v1.2,2013-02-12 16:50:00,
2013-02-12 08:55:00,51.7,38.6,30.39,NE,45,3.0,4.0,61,0.00,,,0.00,204,HR-IXP-WINDi_r2_v1.2,2013-02-12 16:55:00,
2013-02-12 09:01:00,51.9,38.0,30.38,NE,34,2.0,4.0,59,0.00,,,0.00,190,HR-IXP-WINDi_r2_v1.2,2013-02-12 17:01:00,
2013-02-12 09:06:00,52.0,37.2,30.39,NNE,22,3.0,5.0,57,0.00,,,0.00,185,HR-IXP-WINDi_r2_v1.2,2013-02-12 17:06:00,
2013-02-12 09:11:00,52.3,37.5,30.39,NNE,26,2.0,5.0,57,0.00,,,0.00,232,HR-IXP-WINDi_r2_v1.2,2013-02-12 17:11:00,
2013-02-12 09:16:00,53.3,38.4,30.39,NNE,24,1.0,4.0,57,0.00,,,0.00,278,HR-IXP-WINDi_r2_v1.2,2013-02-12 17:16:00,
2013-02-12 09:21:00,53.7,37.9,30.39,NNE,24,3.0,3.0,55,0.00,,,0.00,316,HR-IXP-WINDi_r2_v1.2,2013-02-12 17:21:00,
2013-02-12 09:26:00,54.3,38.4,30.39,NNE,24,1.0,3.0,55,0.00,,,0.00,336,HR-IXP-WINDi_r2_v1.2,2013-02-12 17:26:00,
2013-02-12 09:32:00,55.7,39.3,30.39,NNE,26,1.0,3.0,54,0.00,,,0.00,332,HR-IXP-WINDi_r2_v1.2,2013-02-12 17:32:00,
2013-02-12 09:37:00,57.6,39.6,30.39,NNE,26,0.0,3.0,51,0.00,,,0.00,338,HR-IXP-WINDi_r2_v1.2,2013-02-12 17:37:00,
2013-02-12 09:42:00,57.4,40.4,30.38,NNE,26,0.0,2.0,53,0.00,,,0.00,383,HR-IXP-WINDi_r2_v1.2,2013-02-12 17:42:00,
2013-02-12 09:47:00,58.8,42.6,30.38,NNE,30,1.0,3.0,55,0.00,,,0.00,454,HR-IXP-WINDi_r2_v1.2,2013-02-12 17:47:00,
2013-02-12 09:52:00,58.1,43.4,30.39,ESE,113,2.0,5.0,58,0.00,,,0.00,494,HR-IXP-WINDi_r2_v1.2,2013-02-12 17:52:00,
2013-02-12 09:58:00,59.1,43.8,30.38,South,178,2.0,5.0,57,0.00,,,0.00,508,HR-IXP-WINDi_r2_v1.2,2013-02-12 17:58:00,
2013-02-12 10:03:00,57.4,44.4,30.38,SSE,167,1.0,4.0,62,0.00,,,0.00,517,HR-IXP-WINDi_r2_v1.2,2013-02-12 18:03:00,
2013-02-12 10:08:00,57.5,46.2,30.38,South,180,4.0,6.0,66,0.00,,,0.00,527,HR-IXP-WINDi_r2_v1.2,2013-02-12 18:08:00,
2013-02-12 10:13:00,56.6,46.1,30.38,SSW,206,1.0,7.0,68,0.00,,,0.00,534,HR-IXP-WINDi_r2_v1.2,2013-02-12 18:13:00,
2013-02-12 10:18:00,57.7,46.8,30.38,South,173,2.0,7.0,67,0.00,,,0.00,529,HR-IXP-WINDi_r2_v1.2,2013-02-12 18:18:00,
2013-02-12 10:23:00,57.8,47.3,30.38,SW,218,2.0,5.0,68,0.00,,,0.00,504,HR-IXP-WINDi_r2_v1.2,2013-02-12 18:23:00,
2013-02-12 10:28:00,57.5,47.0,30.38,WSW,246,2.0,5.0,68,0.00,,,0.00,471,HR-IXP-WINDi_r2_v1.2,2013-02-12 18:28:00,
2013-02-12 10:33:00,57.4,46.9,30.38,SW,225,1.0,5.0,68,0.00,,,0.00,457,HR-IXP-WINDi_r2_v1.2,2013-02-12 18:33:00,
2013-02-12 10:39:00,57.7,46.8,30.38,West,267,4.0,8.0,67,0.00,,,0.00,489,HR-IXP-WINDi_r2_v1.2,2013-02-12 18:39:00,
2013-02-12 10:44:00,57.9,47.3,30.38,West,279,2.0,8.0,68,0.00,,,0.00,538,HR-IXP-WINDi_r2_v1.2,2013-02-12 18:44:00,
2013-02-12 10:49:00,57.7,46.4,30.38,West,265,3.0,5.0,66,0.00,,,0.00,582,HR-IXP-WINDi_r2_v1.2,2013-02-12 18:49:00,
2013-02-12 10:54:00,58.2,46.8,30.37,WSW,239,2.0,5.0,66,0.00,,,0.00,566,HR-IXP-WINDi_r2_v1.2,2013-02-12 18:54:00,
2013-02-12 11:00:00,59.4,47.2,30.37,West,264,5.0,5.0,64,0.00,,,0.00,494,HR-IXP-WINDi_r2_v1.2,2013-02-12 19:00:00,
2013-02-12 11:05:00,58.8,46.2,30.37,WSW,255,3.0,6.0,63,0.00,,,0.00,501,HR-IXP-WINDi_r2_v1.2,2013-02-12 19:05:00,
2013-02-12 11:10:00,59.1,46.5,30.37,SW,227,0.0,6.0,63,0.00,,,0.00,589,HR-IXP-WINDi_r2_v1.2,2013-02-12 19:10:00,
2013-02-12 11:15:00,59.3,46.7,30.37,SW,224,0.0,5.0,63,0.00,,,0.00,622,HR-IXP-WINDi_r2_v1.2,2013-02-12 19:15:00,
2013-02-12 11:20:00,58.9,45.4,30.37,West,262,0.0,5.0,61,0.00,,,0.00,629,HR-IXP-WINDi_r2_v1.2,2013-02-12 19:20:00,
2013-02-12 11:26:00,60.0,45.6,30.36,WSW,238,2.0,4.0,59,0.00,,,0.00,631,HR-IXP-WINDi_r2_v1.2,2013-02-12 19:26:00,
2013-02-12 11:31:00,61.3,46.3,30.36,SSW,196,3.0,5.0,58,0.00,,,0.00,635,HR-IXP-WINDi_r2_v1.2,2013-02-12 19:31:00,
2013-02-12 11:36:00,62.8,45.4,30.36,SSE,166,2.0,5.0,53,0.00,,,0.00,640,HR-IXP-WINDi_r2_v1.2,2013-02-12 19:36:00,
2013-02-12 11:41:00,64.0,45.5,30.35,SE,140,3.0,5.0,51,0.00,,,0.00,643,HR-IXP-WINDi_r2_v1.2,2013-02-12 19:41:00,
2013-02-12 11:46:00,61.3,44.0,30.35,SSW,200,4.0,5.0,53,0.00,,,0.00,643,HR-IXP-WINDi_r2_v1.2,2013-02-12 19:46:00,
2013-02-12 11:51:00,62.1,43.7,30.35,SSW,195,1.0,5.0,51,0.00,,,0.00,649,HR-IXP-WINDi_r2_v1.2,2013-02-12 19:51:00,
2013-02-12 11:56:00,60.4,41.6,30.34,SW,235,1.0,5.0,50,0.00,,,0.00,645,HR-IXP-WINDi_r2_v1.2,2013-02-12 19:56:00,
2013-02-12 12:02:00,61.5,44.7,30.34,NW,315,0.0,4.0,54,0.00,,,0.00,650,HR-IXP-WINDi_r2_v1.2,2013-02-12 20:02:00,
2013-02-12 12:07:00,62.2,45.8,30.33,SSW,202,2.0,4.0,55,0.00,,,0.00,647,HR-IXP-WINDi_r2_v1.2,2013-02-12 20:07:00,
2013-02-12 12:12:00,61.8,47.3,30.33,West,261,4.0,8.0,59,0.00,,,0.00,650,HR-IXP-WINDi_r2_v1.2,2013-02-12 20:12:00,
2013-02-12 12:17:00,61.1,46.6,30.33,WSW,256,1.0,8.0,59,0.00,,,0.00,652,HR-IXP-WINDi_r2_v1.2,2013-02-12 20:17:00,
2013-02-12 12:22:00,61.5,47.9,30.33,SW,225,3.0,7.0,61,0.00,,,0.00,647,HR-IXP-WINDi_r2_v1.2,2013-02-12 20:22:00,
2013-02-12 12:27:00,61.4,47.3,30.33,West,267,3.0,7.0,60,0.00,,,0.00,647,HR-IXP-WINDi_r2_v1.2,2013-02-12 20:27:00,
2013-02-12 12:33:00,61.3,47.7,30.33,South,184,2.0,7.0,61,0.00,,,0.00,647,HR-IXP-WINDi_r2_v1.2,2013-02-12 20:33:00,
2013-02-12 12:38:00,62.1,48.9,30.32,SW,225,1.0,7.0,62,0.00,,,0.00,643,HR-IXP-WINDi_r2_v1.2,2013-02-12 20:38:00,
2013-02-12 12:43:00,61.6,48.4,30.32,SW,215,6.0,8.0,62,0.00,,,0.00,642,HR-IXP-WINDi_r2_v1.2,2013-02-12 20:43:00,
2013-02-12 12:48:00,61.8,48.2,30.32,WSW,244,2.0,8.0,61,0.00,,,0.00,636,HR-IXP-WINDi_r2_v1.2,2013-02-12 20:48:00,
2013-02-12 12:53:00,62.3,48.6,30.32,SW,215,6.0,8.0,61,0.00,,,0.00,635,HR-IXP-WINDi_r2_v1.2,2013-02-12 20:53:00,
2013-02-12 12:59:00,61.8,47.7,30.31,WSW,255,2.0,8.0,60,0.00,,,0.00,628,HR-IXP-WINDi_r2_v1.2,2013-02-12 20:59:00,
2013-02-12 13:04:00,61.7,47.2,30.31,WSW,254,1.0,7.0,59,0.00,,,0.00,629,HR-IXP-WINDi_r2_v1.2,2013-02-12 21:04:00,
2013-02-12 13:09:00,61.1,47.1,30.31,SW,215,5.0,10.0,60,0.00,,,0.00,622,HR-IXP-WINDi_r2_v1.2,2013-02-12 21:09:00,
2013-02-12 13:14:00,61.2,47.2,30.31,SSE,168,5.0,10.0,60,0.00,,,0.00,619,HR-IXP-WINDi_r2_v1.2,2013-02-12 21:14:00,
2013-02-12 13:20:00,60.9,46.9,30.31,SW,235,5.0,12.0,60,0.00,,,0.00,613,HR-IXP-WINDi_r2_v1.2,2013-02-12 21:20:00,
2013-02-12 13:25:00,60.8,46.8,30.30,SSW,196,6.0,12.0,60,0.00,,,0.00,605,HR-IXP-WINDi_r2_v1.2,2013-02-12 21:25:00,
2013-02-12 13:30:00,61.3,47.2,30.30,South,190,4.0,9.0,60,0.00,,,0.00,601,HR-IXP-WINDi_r2_v1.2,2013-02-12 21:30:00,
2013-02-12 13:35:00,61.8,47.3,30.30,SSW,200,6.0,10.0,59,0.00,,,0.00,594,HR-IXP-WINDi_r2_v1.2,2013-02-12 21:35:00,
2013-02-12 13:40:00,61.6,47.1,30.30,SW,222,4.0,10.0,59,0.00,,,0.00,582,HR-IXP-WINDi_r2_v1.2,2013-02-12 21:40:00,
2013-02-12 13:45:00,62.2,47.2,30.30,South,191,2.0,10.0,58,0.00,,,0.00,577,HR-IXP-WINDi_r2_v1.2,2013-02-12 21:45:00,
2013-02-12 13:51:00,62.2,46.3,30.30,South,186,3.0,11.0,56,0.00,,,0.00,570,HR-IXP-WINDi_r2_v1.2,2013-02-12 21:51:00,
2013-02-12 13:56:00,61.9,46.0,30.29,WSW,244,8.0,11.0,56,0.00,,,0.00,563,HR-IXP-WINDi_r2_v1.2,2013-02-12 21:56:00,
2013-02-12 14:01:00,61.5,44.7,30.29,SW,232,6.0,10.0,54,0.00,,,0.00,552,HR-IXP-WINDi_r2_v1.2,2013-02-12 22:01:00,
2013-02-12 14:06:00,62.0,45.6,30.29,SW,215,7.0,9.0,55,0.00,,,0.00,541,HR-IXP-WINDi_r2_v1.2,2013-02-12 22:06:00,
2013-02-12 14:11:00,62.1,45.2,30.29,WSW,244,5.0,9.0,54,0.00,,,0.00,531,HR-IXP-WINDi_r2_v1.2,2013-02-12 22:11:00,
2013-02-12 14:16:00,62.3,45.9,30.29,South,172,3.0,9.0,55,0.00,,,0.00,480,HR-IXP-WINDi_r2_v1.2,2013-02-12 22:16:00,
2013-02-12 14:22:00,62.2,45.8,30.28,SW,218,4.0,9.0,55,0.00,,,0.00,510,HR-IXP-WINDi_r2_v1.2,2013-02-12 22:22:00,
2013-02-12 14:27:00,61.4,45.5,30.28,SSW,209,6.0,11.0,56,0.00,,,0.00,496,HR-IXP-WINDi_r2_v1.2,2013-02-12 22:27:00,
2013-02-12 14:32:00,61.4,44.1,30.28,South,189,7.0,11.0,53,0.00,,,0.00,478,HR-IXP-WINDi_r2_v1.2,2013-02-12 22:32:00,
2013-02-12 14:37:00,61.4,44.1,30.28,SSW,205,7.0,10.0,53,0.00,,,0.00,434,HR-IXP-WINDi_r2_v1.2,2013-02-12 22:37:00,
2013-02-12 14:42:00,61.9,42.5,30.28,SW,218,4.0,10.0,49,0.00,,,0.00,452,HR-IXP-WINDi_r2_v1.2,2013-02-12 22:42:00,
2013-02-12 14:47:00,61.7,43.3,30.28,West,263,5.0,9.0,51,0.00,,,0.00,429,HR-IXP-WINDi_r2_v1.2,2013-02-12 22:47:00,
2013-02-12 14:52:00,61.6,43.3,30.28,SW,215,5.0,8.0,51,0.00,,,0.00,406,HR-IXP-WINDi_r2_v1.2,2013-02-12 22:52:00,
2013-02-12 14:58:00,60.9,42.6,30.28,SW,218,6.0,12.0,51,0.00,,,0.00,373,HR-IXP-WINDi_r2_v1.2,2013-02-12 22:58:00,
2013-02-12 15:03:00,60.9,42.6,30.28,SW,235,4.0,12.0,51,0.00,,,0.00,339,HR-IXP-WINDi_r2_v1.2,2013-02-12 23:03:00,
2013-02-12 15:08:00,61.1,42.8,30.28,SW,219,7.0,10.0,51,0.00,,,0.00,225,HR-IXP-WINDi_r2_v1.2,2013-02-12 23:08:00,
2013-02-12 15:13:00,60.7,42.4,30.28,SW,215,6.0,11.0,51,0.00,,,0.00,186,HR-IXP-WINDi_r2_v1.2,2013-02-12 23:13:00,
2013-02-12 15:19:00,60.7,43.4,30.28,SW,234,3.0,11.0,53,0.00,,,0.00,211,HR-IXP-WINDi_r2_v1.2,2013-02-12 23:19:00,
2013-02-12 15:24:00,61.0,43.7,30.28,SW,236,3.0,11.0,53,0.00,,,0.00,216,HR-IXP-WINDi_r2_v1.2,2013-02-12 23:24:00,
2013-02-12 15:29:00,60.9,45.1,30.28,SW,217,6.0,11.0,56,0.00,,,0.00,241,HR-IXP-WINDi_r2_v1.2,2013-02-12 23:29:00,
2013-02-12 15:34:00,60.5,41.7,30.27,West,260,5.0,9.0,50,0.00,,,0.00,250,HR-IXP-WINDi_r2_v1.2,2013-02-12 23:34:00,
2013-02-12 15:40:00,60.5,41.7,30.27,WSW,246,4.0,11.0,50,0.00,,,0.00,250,HR-IXP-WINDi_r2_v1.2,2013-02-12 23:40:00,
2013-02-12 15:45:00,60.5,40.1,30.28,West,262,6.0,11.0,47,0.00,,,0.00,246,HR-IXP-WINDi_r2_v1.2,2013-02-12 23:45:00,
2013-02-12 15:50:00,60.6,38.5,30.27,West,261,3.0,9.0,44,0.00,,,0.00,241,HR-IXP-WINDi_r2_v1.2,2013-02-12 23:50:00,
2013-02-12 15:55:00,60.5,40.1,30.28,SW,234,2.0,9.0,47,0.00,,,0.00,230,HR-IXP-WINDi_r2_v1.2,2013-02-12 23:55:00,
2013-02-12 16:00:00,60.6,39.1,30.28,SW,220,2.0,9.0,45,0.00,,,0.00,221,HR-IXP-WINDi_r2_v1.2,2013-02-13 00:00:00,
2013-02-12 16:06:00,60.8,39.9,30.27,SW,222,3.0,8.0,46,0.00,,,0.00,204,HR-IXP-WINDi_r2_v1.2,2013-02-13 00:06:00,
2013-02-12 16:11:00,60.8,39.9,30.27,SW,221,3.0,7.0,46,0.00,,,0.00,197,HR-IXP-WINDi_r2_v1.2,2013-02-13 00:11:00,
2013-02-12 16:16:00,60.9,38.2,30.27,West,261,4.0,6.0,43,0.00,,,0.00,179,HR-IXP-WINDi_r2_v1.2,2013-02-13 00:16:00,
2013-02-12 16:21:00,60.8,38.7,30.27,SW,218,7.0,9.0,44,0.00,,,0.00,165,HR-IXP-WINDi_r2_v1.2,2013-02-13 00:21:00,
2013-02-12 16:26:00,60.7,40.9,30.27,SW,216,1.0,9.0,48,0.00,,,0.00,149,HR-IXP-WINDi_r2_v1.2,2013-02-13 00:26:00,
2013-02-12 16:32:00,60.4,41.1,30.27,SW,222,3.0,8.0,49,0.00,,,0.00,134,HR-IXP-WINDi_r2_v1.2,2013-02-13 00:32:00,
2013-02-12 16:37:00,60.4,41.1,30.27,SSW,204,3.0,8.0,49,0.00,,,0.00,120,HR-IXP-WINDi_r2_v1.2,2013-02-13 00:37:00,
2013-02-12 16:42:00,60.4,40.6,30.27,SSW,200,6.0,7.0,48,0.00,,,0.00,105,HR-IXP-WINDi_r2_v1.2,2013-02-13 00:42:00,
2013-02-12 16:47:00,60.2,40.9,30.27,SSW,198,3.0,7.0,49,0.00,,,0.00,86,HR-IXP-WINDi_r2_v1.2,2013-02-13 00:47:00,
2013-02-12 16:52:00,59.9,42.2,30.27,SSW,197,3.0,7.0,52,0.00,,,0.00,46,HR-IXP-WINDi_r2_v1.2,2013-02-13 00:52:00,
2013-02-12 16:57:00,60.0,38.0,30.27,West,259,0.0,6.0,44,0.00,,,0.00,28,HR-IXP-WINDi_r2_v1.2,2013-02-13 00:57:00,
2013-02-12 17:03:00,60.5,34.7,30.28,WNW,283,3.0,7.0,38,0.00,,,0.00,25,HR-IXP-WINDi_r2_v1.2,2013-02-13 01:03:00,
2013-02-12 17:08:00,60.6,34.2,30.28,West,275,5.0,7.0,37,0.00,,,0.00,25,HR-IXP-WINDi_r2_v1.2,2013-02-13 01:08:00,
2013-02-12 17:13:00,60.4,34.0,30.27,West,279,3.0,6.0,37,0.00,,,0.00,30,HR-IXP-WINDi_r2_v1.2,2013-02-13 01:13:00,
2013-02-12 17:18:00,60.2,33.1,30.28,West,261,4.0,5.0,36,0.00,,,0.00,21,HR-IXP-WINDi_r2_v1.2,2013-02-13 01:18:00,
2013-02-12 17:23:00,60.0,33.6,30.27,West,267,3.0,5.0,37,0.00,,,0.00,12,HR-IXP-WINDi_r2_v1.2,2013-02-13 01:23:00,
2013-02-12 17:29:00,59.6,33.3,30.27,West,267,3.0,5.0,37,0.00,,,0.00,7,HR-IXP-WINDi_r2_v1.2,2013-02-13 01:29:00,
2013-02-12 17:34:00,59.3,33.7,30.28,West,267,1.0,5.0,38,0.00,,,0.00,5,HR-IXP-WINDi_r2_v1.2,2013-02-13 01:34:00,
2013-02-12 17:39:00,59.0,34.0,30.27,West,267,1.0,3.0,39,0.00,,,0.00,0,HR-IXP-WINDi_r2_v1.2,2013-02-13 01:39:00,
2013-02-12 17:44:00,58.8,33.9,30.28,West,259,2.0,5.0,39,0.00,,,0.00,0,HR-IXP-WINDi_r2_v1.2,2013-02-13 01:44:00,
2013-02-12 17:49:00,58.6,33.0,30.28,West,259,2.0,5.0,38,0.00,,,0.00,0,HR-IXP-WINDi_r2_v1.2,2013-02-13 01:49:00,
2013-02-12 17:55:00,58.4,32.9,30.28,WSW,253,3.0,4.0,38,0.00,,,0.00,0,HR-IXP-WINDi_r2_v1.2,2013-02-13 01:55:00,
2013-02-12 18:00:00,58.2,32.7,30.28,WSW,248,1.0,4.0,38,0.00,,,0.00,0,HR-IXP-WINDi_r2_v1.2,2013-02-13 02:00:00,
2013-02-12 18:05:00,58.0,32.5,30.28,WSW,250,2.0,4.0,38,0.00,,,0.00,0,HR-IXP-WINDi_r2_v1.2,2013-02-13 02:05:00,
2013-02-12 18:10:00,57.8,32.3,30.28,WSW,250,3.0,4.0,38,0.00,,,0.00,0,HR-IXP-WINDi_r2_v1.2,2013-02-13 02:10:00,
2013-02-12 18:16:00,57.7,32.9,30.28,WSW,258,3.0,4.0,39,0.00,,,0.00,0,HR-IXP-WINDi_r2_v1.2,2013-02-13 02:16:00,
2013-02-12 18:21:00,57.4,32.6,30.28,West,259,2.0,4.0,39,0.00,,,0.00,0,HR-IXP-WINDi_r2_v1.2,2013-02-13 02:21:00,
2013-02-12 18:26:00,57.2,33.7,30.28,West,266,2.0,5.0,41,0.00,,,0.00,0,HR-IXP-WINDi_r2_v1.2,2013-02-13 02:26:00,
2013-02-12 18:31:00,56.9,34.0,30.28,West,266,0.0,5.0,42,0.00,,,0.00,0,HR-IXP-WINDi_r2_v1.2,2013-02-13 02:31:00,
2013-02-12 18:37:00,56.6,34.3,30.28,West,266,0.0,2.0,43,0.00,,,0.00,0,HR-IXP-WINDi_r2_v1.2,2013-02-13 02:37:00,
2013-02-12 18:42:00,56.3,35.2,30.28,West,266,0.0,2.0,45,0.00,,,0.00,0,HR-IXP-WINDi_r2_v1.2,2013-02-13 02:42:00,
2013-02-12 18:47:00,56.0,38.6,30.29,West,266,0.0,2.0,52,0.00,,,0.00,0,HR-IXP-WINDi_r2_v1.2,2013-02-13 02:47:00,
2013-02-12 18:53:00,55.3,39.8,30.29,West,266,0.0,2.0,56,0.00,,,0.00,0,HR-IXP-WINDi_r2_v1.2,2013-02-13 02:53:00,
2013-02-12 18:58:00,55.0,41.8,30.29,West,266,1.0,2.0,61,0.00,,,0.00,0,HR-IXP-WINDi_r2_v1.2,2013-02-13 02:58:00,
2013-02-12 19:03:00,54.9,42.9,30.29,West,266,1.0,2.0,64,0.00,,,0.00,0,HR-IXP-WINDi_r2_v1.2,2013-02-13 03:03:00,
2013-02-12 19:09:00,54.8,43.6,30.29,West,266,0.0,2.0,66,0.00,,,0.00,0,HR-IXP-WINDi_r2_v1.2,2013-02-13 03:09:00,
2013-02-12 19:14:00,54.5,43.7,30.29,West,266,0.0,2.0,67,0.00,,,0.00,0,HR-IXP-WINDi_r2_v1.2,2013-02-13 03:14:00,
2013-02-12 19:19:00,53.9,43.9,30.29,West,266,0.0,1.0,69,0.00,,,0.00,0,HR-IXP-WINDi_r2_v1.2,2013-02-13 03:19:00,
2013-02-12 19:24:00,53.6,43.6,30.29,West,266,0.0,0.0,69,0.00,,,0.00,0,HR-IXP-WINDi_r2_v1.2,2013-02-13 03:24:00,
2013-02-12 19:29:00,53.5,43.9,30.29,West,266,0.0,0.0,70,0.00,,,0.00,0,HR-IXP-WINDi_r2_v1.2,2013-02-13 03:29:00,
2013-02-12 19:35:00,53.4,44.2,30.30,West,266,0.0,0.0,71,0.00,,,0.00,0,HR-IXP-WINDi_r2_v1.2,2013-02-13 03:35:00,
2013-02-12 19:40:00,53.5,43.9,30.30,West,266,0.0,0.0,70,0.00,,,0.00,0,HR-IXP-WINDi_r2_v1.2,2013-02-13 03:40:00,
2013-02-12 19:45:00,53.2,43.6,30.30,West,266,0.0,0.0,70,0.00,,,0.00,0,HR-IXP-WINDi_r2_v1.2,2013-02-13 03:45:00,
2013-02-12 19:50:00,52.9,43.7,30.30,West,266,0.0,0.0,71,0.00,,,0.00,0,HR-IXP-WINDi_r2_v1.2,2013-02-13 03:50:00,
2013-02-12 19:55:00,52.7,43.9,30.30,West,266,0.0,0.0,72,0.00,,,0.00,0,HR-IXP-WINDi_r2_v1.2,2013-02-13 03:55:00,
2013-02-12 20:01:00,52.0,43.2,30.30,West,266,0.0,0.0,72,0.00,,,0.00,0,HR-IXP-WINDi_r2_v1.2,2013-02-13 04:01:00,
2013-02-12 20:06:00,51.7,43.3,30.30,West,266,0.0,0.0,73,0.00,,,0.00,0,HR-IXP-WINDi_r2_v1.2,2013-02-13 04:06:00,
2013-02-12 20:11:00,51.9,43.8,30.30,West,266,0.0,1.0,74,0.00,,,0.00,0,HR-IXP-WINDi_r2_v1.2,2013-02-13 04:11:00,
2013-02-12 20:17:00,51.5,43.8,30.30,West,266,0.0,1.0,75,0.00,,,0.00,0,HR-IXP-WINDi_r2_v1.2,2013-02-13 04:17:00,
2013-02-12 20:22:00,51.4,44.0,30.30,West,266,0.0,1.0,76,0.00,,,0.00,0,HR-IXP-WINDi_r2_v1.2,2013-02-13 04:22:00,
2013-02-12 20:27:00,51.5,44.5,30.30,West,266,0.0,1.0,77,0.00,,,0.00,0,HR-IXP-WINDi_r2_v1.2,2013-02-13 04:27:00,
2013-02-12 20:32:00,51.3,44.3,30.30,West,266,0.0,0.0,77,0.00,,,0.00,0,HR-IXP-WINDi_r2_v1.2,2013-02-13 04:32:00,
2013-02-12 20:37:00,51.4,44.4,30.31,West,266,0.0,0.0,77,0.00,,,0.00,0,HR-IXP-WINDi_r2_v1.2,2013-02-13 04:37:00,
2013-02-12 20:42:00,51.2,44.5,30.31,West,266,0.0,1.0,78,0.00,,,0.00,0,HR-IXP-WINDi_r2_v1.2,2013-02-13 04:42:00,
2013-02-12 20:48:00,51.1,44.8,30.30,West,266,0.0,1.0,79,0.00,,,0.00,0,HR-IXP-WINDi_r2_v1.2,2013-02-13 04:48:00,
2013-02-12 20:53:00,50.8,44.1,30.30,West,266,0.0,0.0,78,0.00,,,0.00,0,HR-IXP-WINDi_r2_v1.2,2013-02-13 04:53:00,
2013-02-12 20:58:00,50.7,44.4,30.30,West,266,0.0,0.0,79,0.00,,,0.00,0,HR-IXP-WINDi_r2_v1.2,2013-02-13 04:58:00,
2013-02-12 21:00:00,50.7,44.4,30.30,West,266,0.0,0.0,79,0.00,,,0.00,0,HR-IXP-WINDi_r2_v1.2,2013-02-13 05:00:00,
2013-02-12 21:05:00,50.5,44.2,30.30,West,266,0.0,0.0,79,0.00,,,0.00,0,HR-IXP-WINDi_r2_v1.2,2013-02-13 05:05:00,
2013-02-12 21:10:00,50.3,44.3,30.30,West,266,0.0,0.0,80,0.00,,,0.00,0,HR-IXP-WINDi_r2_v1.2,2013-02-13 05:10:00,
2013-02-12 21:15:00,49.9,43.9,30.30,West,266,0.0,0.0,80,0.00,,,0.00,0,HR-IXP-WINDi_r2_v1.2,2013-02-13 05:15:00,
2013-02-12 21:21:00,49.5,43.5,30.30,West,266,0.0,0.0,80,0.00,,,0.00,0,HR-IXP-WINDi_r2_v1.2,2013-02-13 05:21:00,
2013-02-12 21:26:00,49.5,43.9,30.30,West,266,0.0,0.0,81,0.00,,,0.00,0,HR-IXP-WINDi_r2_v1.2,2013-02-13 05:26:00,
2013-02-12 21:31:00,49.3,43.7,30.30,West,266,0.0,0.0,81,0.00,,,0.00,0,HR-IXP-WINDi_r2_v1.2,2013-02-13 05:31:00,
2013-02-12 21:36:00,48.9,43.3,30.30,West,266,0.0,0.0,81,0.00,,,0.00,0,HR-IXP-WINDi_r2_v1.2,2013-02-13 05:36:00,
2013-02-12 21:41:00,49.0,43.7,30.30,West,266,0.0,0.0,82,0.00,,,0.00,0,HR-IXP-WINDi_r2_v1.2,2013-02-13 05:41:00,
2013-02-12 21:46:00,49.1,43.8,30.30,West,266,0.0,0.0,82,0.00,,,0.00,0,HR-IXP-WINDi_r2_v1.2,2013-02-13 05:46:00,
2013-02-12 21:52:00,48.9,43.6,30.30,West,266,0.0,0.0,82,0.00,,,0.00,0,HR-IXP-WINDi_r2_v1.2,2013-02-13 05:52:00,
2013-02-12 21:57:00,49.0,43.7,30.30,West,266,0.0,0.0,82,0.00,,,0.00,0,HR-IXP-WINDi_r2_v1.2,2013-02-13 05:57:00,
2013-02-12 22:02:00,48.7,43.4,30.30,West,266,0.0,0.0,82,0.00,,,0.00,0,HR-IXP-WINDi_r2_v1.2,2013-02-13 06:02:00,
2013-02-12 22:07:00,48.2,42.9,30.30,West,266,0.0,0.0,82,0.00,,,0.00,0,HR-IXP-WINDi_r2_v1.2,2013-02-13 06:07:00,
2013-02-12 22:13:00,47.7,42.4,30.30,West,266,0.0,0.0,82,0.00,,,0.00,0,HR-IXP-WINDi_r2_v1.2,2013-02-13 06:13:00,
2013-02-12 22:18:00,47.6,42.6,30.30,West,266,0.0,0.0,83,0.00,,,0.00,0,HR-IXP-WINDi_r2_v1.2,2013-02-13 06:18:00,
2013-02-12 22:23:00,47.7,43.0,30.29,West,266,0.0,0.0,84,0.00,,,0.00,0,HR-IXP-WINDi_r2_v1.2,2013-02-13 06:23:00,
2013-02-12 22:29:00,47.7,43.0,30.29,West,266,0.0,0.0,84,0.00,,,0.00,0,HR-IXP-WINDi_r2_v1.2,2013-02-13 06:29:00,
2013-02-12 22:34:00,47.5,42.5,30.29,West,266,0.0,0.0,83,0.00,,,0.00,0,HR-IXP-WINDi_r2_v1.2,2013-02-13 06:34:00,
2013-02-12 22:39:00,47.4,42.8,30.29,West,266,0.0,0.0,84,0.00,,,0.00,0,HR-IXP-WINDi_r2_v1.2,2013-02-13 06:39:00,
2013-02-12 22:44:00,47.3,43.0,30.29,West,266,0.0,0.0,85,0.00,,,0.00,0,HR-IXP-WINDi_r2_v1.2,2013-02-13 06:44:00,
2013-02-12 22:49:00,46.8,42.2,30.29,West,266,0.0,0.0,84,0.00,,,0.00,0,HR-IXP-WINDi_r2_v1.2,2013-02-13 06:49:00,
2013-02-12 22:55:00,46.1,41.5,30.29,West,266,0.0,0.0,84,0.00,,,0.00,0,HR-IXP-WINDi_r2_v1.2,2013-02-13 06:55:00,
2013-02-12 23:00:00,46.3,42.0,30.29,West,266,0.0,0.0,85,0.00,,,0.00,0,HR-IXP-WINDi_r2_v1.2,2013-02-13 07:00:00,
2013-02-12 23:05:00,46.5,42.5,30.30,West,266,0.0,0.0,86,0.00,,,0.00,0,HR-IXP-WINDi_r2_v1.2,2013-02-13 07:05:00,
2013-02-12 23:10:00,46.8,42.5,30.30,West,266,0.0,0.0,85,0.00,,,0.00,0,HR-IXP-WINDi_r2_v1.2,2013-02-13 07:10:00,
2013-02-12 23:15:00,46.8,42.5,30.30,West,266,0.0,0.0,85,0.00,,,0.00,0,HR-IXP-WINDi_r2_v1.2,2013-02-13 07:15:00,
2013-02-12 23:20:00,46.7,42.4,30.30,West,266,0.0,0.0,85,0.00,,,0.00,0,HR-IXP-WINDi_r2_v1.2,2013-02-13 07:20:00,
2013-02-12 23:26:00,46.5,42.2,30.30,West,266,0.0,0.0,85,0.00,,,0.00,0,HR-IXP-WINDi_r2_v1.2,2013-02-13 07:26:00,
2013-02-12 23:31:00,46.1,41.8,30.30,West,266,0.0,0.0,85,0.00,,,0.00,0,HR-IXP-WINDi_r2_v1.2,2013-02-13 07:31:00,
2013-02-12 23:36:00,46.2,42.2,30.29,West,266,0.0,1.0,86,0.00,,,0.00,0,HR-IXP-WINDi_r2_v1.2,2013-02-13 07:36:00,
2013-02-12 23:41:00,46.0,41.7,30.30,West,266,0.0,1.0,85,0.00,,,0.00,0,HR-IXP-WINDi_r2_v1.2,2013-02-13 07:41:00,
2013-02-12 23:46:00,46.1,42.1,30.29,West,266,0.0,0.0,86,0.00,,,0.00,0,HR-IXP-WINDi_r2_v1.2,2013-02-13 07:46:00,
2013-02-12 23:51:00,46.1,41.8,30.29,West,266,0.0,1.0,85,0.00,,,0.00,0,HR-IXP-WINDi_r2_v1.2,2013-02-13 07:51:00,
2013-02-12 23:57:00,45.9,41.6,30.29,West,266,0.0,1.0,85,0.00,,,0.00,0,HR-IXP-WINDi_r2_v1.2,2013-02-13 07:57:00,